Time;durP1;ratioP1;P1;durP2;ratioP2;P2;SDS_P1;SDS_P2;PMS_P1;PMS_P2;Temp;Humidity;BMP_temperature;BMP_pressure;BME280_temperature;BME280_humidity;BME280_pressure;Samples;Min_cycle;Max_cycle;Signal;HPM_P1;HPM_P2
2022/01/27 00:02:42;;;;;;;;;60.25;50.25;;;;;3.96;67.16;100441.88;4931830;29;8878;-75
2022/01/27 00:05:17;;;;;;;;;64.50;48.75;;;;;3.90;67.30;100445.09;4915992;29;8949;-76
2022/01/27 00:07:59;;;;;;;;;56.25;46.50;;;;;4.13;67.20;100445.13;4898542;29;8981;-76
2022/01/27 00:10:45;;;;;;;;;50.25;46.25;;;;;4.06;66.88;100447.47;4909996;29;8975;-80
2022/01/27 00:13:16;;;;;;;;;50.00;44.25;;;;;4.23;66.95;100439.50;4894171;29;8880;-80
2022/01/27 00:15:47;;;;;;;;;62.50;49.75;;;;;4.15;66.56;100446.06;4897783;29;8875;-75
2022/01/27 00:18:18;;;;;;;;;58.25;49.75;;;;;4.24;66.92;100447.31;4881845;29;8865;-76
2022/01/27 00:20:49;;;;;;;;;63.75;49.25;;;;;4.40;66.58;100447.91;4909888;29;8884;-77
2022/01/27 00:23:18;;;;;;;;;68.75;56.00;;;;;4.47;65.95;100437.88;4948354;28;8947;-76
2022/01/27 00:25:46;;;;;;;;;59.00;49.00;;;;;4.55;66.38;100448.50;4967353;28;8919;-76
2022/01/27 00:28:15;;;;;;;;;61.50;52.00;;;;;4.64;65.73;100446.28;4950712;28;8914;-75
2022/01/27 00:30:44;;;;;;;;;61.50;50.25;;;;;4.62;65.14;100450.50;4947577;28;8883;-74
2022/01/27 00:33:13;;;;;;;;;68.50;55.25;;;;;4.55;65.34;100457.97;4912337;29;8873;-75
2022/01/27 00:35:42;;;;;;;;;61.25;50.00;;;;;4.62;65.21;100452.22;4886146;28;8878;-77
2022/01/27 00:38:13;;;;;;;;;67.75;51.50;;;;;4.62;65.47;100458.25;4941884;28;8860;-78
2022/01/27 00:40:41;;;;;;;;;60.00;47.50;;;;;4.66;64.63;100456.66;4932199;28;8870;-77
2022/01/27 00:43:10;;;;;;;;;49.25;42.00;;;;;4.64;64.91;100454.03;4966533;28;8913;-75
2022/01/27 00:45:39;;;;;;;;;75.25;57.50;;;;;4.63;64.88;100447.09;4966030;28;8878;-75
2022/01/27 00:48:09;;;;;;;;;66.25;53.75;;;;;4.64;64.68;100443.69;4943567;28;8880;-74
2022/01/27 00:50:40;;;;;;;;;62.75;50.50;;;;;4.67;65.00;100461.91;4985907;28;8874;-77
2022/01/27 00:53:23;;;;;;;;;41.25;41.25;;;;;4.76;64.88;100453.59;4971075;28;8862;-78
2022/01/27 00:55:55;;;;;;;;;66.00;51.00;;;;;4.52;65.18;100458.72;4979370;28;8838;-78
2022/01/27 00:58:37;;;;;;;;;58.50;47.50;;;;;4.21;65.62;100460.09;4969753;28;8885;-76
2022/01/27 01:01:10;;;;;;;;;61.00;49.00;;;;;4.36;65.99;100461.53;4989215;28;8916;-76
2022/01/27 01:03:42;;;;;;;;;59.00;48.00;;;;;4.36;65.56;100452.06;5006862;28;8858;-77
2022/01/27 01:06:32;;;;;;;;;66.75;49.50;;;;;4.45;65.67;100454.16;5019808;28;8869;-75
2022/01/27 01:12:24;;;;;;;;;58.25;47.25;;;;;4.39;65.73;100461.66;4999983;28;8909;-75
2022/01/27 01:14:54;;;;;;;;;45.00;39.00;;;;;4.35;65.34;100462.34;5006779;28;8858;-74
2022/01/27 01:20:28;;;;;;;;;58.50;48.50;;;;;4.48;64.98;100459.44;5007937;28;8872;-76
2022/01/27 01:31:30;;;;;;;;;57.25;47.25;;;;;4.69;64.44;100446.47;4997045;28;8890;-75
2022/01/27 01:34:12;;;;;;;;;67.75;50.50;;;;;4.74;64.57;100449.19;4995198;28;8942;-78
2022/01/27 01:36:49;;;;;;;;;59.50;49.75;;;;;4.80;64.25;100445.16;5012215;28;8920;-78
2022/01/27 01:39:18;;;;;;;;;63.67;46.00;;;;;4.67;63.96;100448.09;4977429;28;8851;-77
2022/01/27 01:41:46;;;;;;;;;61.75;50.25;;;;;4.54;64.49;100451.91;5004604;28;8860;-75
2022/01/27 01:44:16;;;;;;;;;61.00;49.50;;;;;4.36;64.50;100440.88;5012007;28;8852;-77
2022/01/27 01:46:45;;;;;;;;;48.00;42.25;;;;;4.43;65.06;100448.91;4988489;28;8856;-75
2022/01/27 01:49:14;;;;;;;;;54.75;47.50;;;;;4.10;65.61;100448.47;4963378;28;8883;-77
2022/01/27 01:51:44;;;;;;;;;59.50;49.00;;;;;4.21;65.76;100447.19;4963765;28;8883;-79
2022/01/27 01:54:13;;;;;;;;;56.75;48.25;;;;;3.96;66.25;100436.72;4956805;28;9021;-75
2022/01/27 01:56:44;;;;;;;;;60.75;45.50;;;;;4.18;66.09;100435.84;4953360;28;8922;-75
2022/01/27 01:59:12;;;;;;;;;61.25;48.25;;;;;4.16;65.67;100437.50;4969691;28;8887;-75
2022/01/27 02:01:43;;;;;;;;;47.25;44.50;;;;;4.15;65.98;100440.91;4969381;28;9759;-75
2022/01/27 02:04:12;;;;;;;;;61.00;46.25;;;;;4.27;66.21;100425.88;4953336;28;8966;-75
2022/01/27 02:06:47;;;;;;;;;60.75;50.00;;;;;4.42;65.32;100430.78;4953348;28;8966;-75
2022/01/27 02:20:24;;;;;;;;;56.50;49.00;;;;;4.72;64.49;100425.00;5013510;28;8844;-77
2022/01/27 02:22:53;;;;;;;;;52.00;47.00;;;;;4.77;64.38;100428.66;5011451;28;8861;-75
2022/01/27 02:25:22;;;;;;;;;54.25;45.50;;;;;4.83;64.05;100421.13;5028404;28;8951;-76
2022/01/27 02:27:53;;;;;;;;;54.00;44.00;;;;;4.84;63.78;100426.34;5011362;28;8844;-78
2022/01/27 02:30:23;;;;;;;;;55.50;47.00;;;;;4.87;63.58;100431.63;5004073;28;8850;-75
2022/01/27 02:32:52;;;;;;;;;60.50;46.50;;;;;4.43;63.93;100432.56;5005839;28;8860;-74
2022/01/27 02:35:24;;;;;;;;;56.75;47.75;;;;;4.55;64.04;100426.97;4979292;28;8840;-79
2022/01/27 02:37:54;;;;;;;;;49.25;44.00;;;;;4.66;64.63;100428.25;5022330;28;9672;-75
2022/01/27 02:40:34;;;;;;;;;58.25;47.50;;;;;4.71;64.11;100441.31;5027423;28;8864;-74
2022/01/27 02:43:03;;;;;;;;;46.75;41.75;;;;;4.78;63.89;100430.41;5007951;28;9093;-74
2022/01/27 02:45:37;;;;;;;;;61.50;49.75;;;;;4.82;63.97;100437.44;5010605;28;8896;-76
2022/01/27 02:48:06;;;;;;;;;59.25;47.00;;;;;4.82;63.77;100442.59;5007176;28;8901;-77
2022/01/27 02:50:35;;;;;;;;;60.00;45.75;;;;;4.85;63.97;100429.81;5028493;28;9083;-77
2022/01/27 02:53:07;;;;;;;;;60.25;50.25;;;;;4.92;63.84;100436.09;4997138;28;8876;-75
2022/01/27 02:55:36;;;;;;;;;41.75;33.50;;;;;4.86;63.76;100432.47;5027975;28;8861;-75
2022/01/27 02:58:05;;;;;;;;;59.25;49.00;;;;;4.82;63.50;100419.34;5026410;28;8864;-74
2022/01/27 03:00:34;;;;;;;;;61.00;49.75;;;;;4.87;63.43;100423.00;5011023;28;8864;-75
2022/01/27 03:03:03;;;;;;;;;62.25;50.00;;;;;4.89;63.02;100411.00;5010563;28;8844;-75
2022/01/27 03:05:32;;;;;;;;;56.50;47.50;;;;;4.88;62.86;100422.19;5010668;28;8873;-75
2022/01/27 03:08:01;;;;;;;;;47.25;40.25;;;;;4.87;62.99;100410.06;5027172;28;9099;-75
2022/01/27 03:10:35;;;;;;;;;58.50;45.75;;;;;4.92;62.77;100418.88;5009646;28;8962;-73
2022/01/27 03:13:03;;;;;;;;;63.75;49.75;;;;;4.87;63.01;100420.41;5026571;28;9689;-76
2022/01/27 03:15:32;;;;;;;;;59.50;49.75;;;;;4.87;63.06;100426.44;4997520;28;8865;-76
2022/01/27 03:18:00;;;;;;;;;56.75;48.75;;;;;4.89;63.04;100429.09;5027460;28;8885;-75
2022/01/27 03:20:32;;;;;;;;;55.75;46.00;;;;;4.83;63.03;100423.72;4932852;28;8881;-77
2022/01/27 03:23:02;;;;;;;;;56.75;45.50;;;;;4.83;63.08;100431.47;4964612;28;8882;-78
2022/01/27 03:25:32;;;;;;;;;62.50;50.25;;;;;4.94;63.17;100431.88;4968329;28;8987;-76
2022/01/27 03:28:01;;;;;;;;;60.00;49.00;;;;;4.90;63.09;100423.13;4955798;28;8875;-76
2022/01/27 03:30:29;;;;;;;;;61.75;48.00;;;;;4.95;63.19;100423.28;4967852;28;9633;-76
2022/01/27 03:32:58;;;;;;;;;62.00;50.75;;;;;4.98;63.32;100421.69;4968404;28;8925;-76
2022/01/27 03:35:27;;;;;;;;;63.00;51.75;;;;;4.68;63.15;100424.88;4968258;28;8951;-75
2022/01/27 03:37:56;;;;;;;;;61.25;50.50;;;;;4.77;63.62;100431.25;4967614;28;8964;-74
2022/01/27 03:40:24;;;;;;;;;63.50;50.25;;;;;4.78;63.31;100431.31;4967953;28;8867;-74
2022/01/27 03:43:03;;;;;;;;;56.50;45.75;;;;;4.77;62.41;100436.41;4935805;28;8883;-74
2022/01/27 03:45:32;;;;;;;;;66.50;52.75;;;;;4.69;62.34;100437.00;4967460;28;8967;-76
2022/01/27 03:48:01;;;;;;;;;56.00;46.00;;;;;4.37;63.71;100433.19;4951988;28;8879;-76
2022/01/27 03:50:30;;;;;;;;;59.00;47.00;;;;;4.49;63.78;100432.78;4936565;28;8879;-77
2022/01/27 03:52:59;;;;;;;;;59.00;47.25;;;;;3.90;64.54;100427.03;4990362;28;9087;-75
2022/01/27 03:55:27;;;;;;;;;61.25;47.25;;;;;4.12;64.78;100427.88;4991345;28;8842;-75
2022/01/27 03:57:57;;;;;;;;;55.25;48.25;;;;;4.22;64.83;100420.56;5008222;28;8854;-77
2022/01/27 04:00:26;;;;;;;;;54.50;46.25;;;;;4.38;64.42;100423.75;5007527;28;8866;-77
2022/01/27 04:03:02;;;;;;;;;59.50;48.50;;;;;4.48;64.06;100431.03;5024098;28;9495;-78
2022/01/27 04:05:34;;;;;;;;;49.25;46.25;;;;;4.47;64.09;100427.56;5007312;28;8862;-73
2022/01/27 04:08:03;;;;;;;;;60.25;49.50;;;;;4.58;63.92;100433.13;5024267;28;8874;-76
2022/01/27 04:10:32;;;;;;;;;63.25;50.50;;;;;4.67;63.62;100433.47;4986324;28;8860;-76
2022/01/27 04:13:03;;;;;;;;;52.00;43.00;;;;;4.74;63.23;100439.75;4970510;28;8932;-75
2022/01/27 04:15:32;;;;;;;;;63.75;51.25;;;;;4.75;63.63;100436.34;4986378;28;8868;-73
2022/01/27 04:18:01;;;;;;;;;60.25;48.50;;;;;4.83;63.15;100445.25;4970157;28;8889;-75
2022/01/27 04:20:31;;;;;;;;;68.50;52.25;;;;;4.87;63.23;100435.91;4954306;28;8881;-75
2022/01/27 04:22:59;;;;;;;;;52.00;46.75;;;;;4.78;62.32;100443.31;4931685;28;8886;-75
2022/01/27 04:25:28;;;;;;;;;64.00;51.75;;;;;4.72;62.88;100438.81;4947857;28;8886;-75
2022/01/27 04:28:02;;;;;;;;;58.25;46.25;;;;;4.77;63.23;100439.88;4916073;28;8964;-76
2022/01/27 04:30:33;;;;;;;;;69.50;53.00;;;;;4.85;63.34;100434.97;4947206;28;8912;-75
2022/01/27 04:33:04;;;;;;;;;87.67;67.00;;;;;4.89;63.22;100440.31;4915785;28;8877;-75
2022/01/27 04:35:37;;;;;;;;;68.50;53.50;;;;;4.93;62.87;100436.13;4931407;28;9348;-75
2022/01/27 04:38:19;;;;;;;;;67.75;53.00;;;;;4.98;62.54;100434.59;4931881;28;8893;-74
2022/01/27 04:40:56;;;;;;;;;68.50;53.25;;;;;4.97;61.65;100437.13;4962439;28;8868;-75
2022/01/27 04:43:31;;;;;;;;;62.75;48.50;;;;;4.68;62.29;100439.53;5023600;28;8896;-74
2022/01/27 04:46:11;;;;;;;;;60.25;46.25;;;;;4.81;62.66;100436.56;4990396;28;8866;-74
2022/01/27 04:48:43;;;;;;;;;65.00;50.50;;;;;4.68;62.77;100432.63;5006851;28;8908;-76
2022/01/27 04:51:18;;;;;;;;;52.75;44.75;;;;;4.75;62.03;100425.13;4990557;28;8858;-74
2022/01/27 04:53:51;;;;;;;;;64.50;50.25;;;;;4.74;62.75;100423.38;5006327;28;8854;-76
2022/01/27 04:56:21;;;;;;;;;60.25;46.00;;;;;4.80;62.35;100426.16;5005763;28;9010;-75
2022/01/27 04:58:54;;;;;;;;;63.25;49.75;;;;;4.84;62.51;100426.34;4965216;28;8903;-76
2022/01/27 05:01:30;;;;;;;;;61.25;49.00;;;;;4.92;62.22;100426.63;4946784;28;9634;-75
2022/01/27 05:04:03;;;;;;;;;65.00;50.50;;;;;4.95;62.13;100429.31;4965708;28;8872;-74
2022/01/27 05:06:32;;;;;;;;;43.75;36.50;;;;;4.99;61.82;100422.56;4965093;28;8859;-74
2022/01/27 05:09:01;;;;;;;;;77.50;61.00;;;;;4.90;62.42;100436.03;4965948;28;8891;-77
2022/01/27 05:11:32;;;;;;;;;64.00;54.00;;;;;4.95;62.09;100424.13;4965759;28;8937;-78
2022/01/27 05:14:08;;;;;;;;;63.00;51.50;;;;;4.99;62.44;100426.03;4947071;28;8879;-78
2022/01/27 05:16:38;;;;;;;;;62.50;50.75;;;;;5.04;62.09;100423.59;4946875;28;9049;-76
2022/01/27 05:19:07;;;;;;;;;63.50;52.75;;;;;4.83;62.08;100429.75;4947055;29;8887;-75
2022/01/27 05:21:36;;;;;;;;;63.25;51.00;;;;;4.92;62.05;100433.50;4947073;29;8899;-80
2022/01/27 05:24:05;;;;;;;;;75.25;60.75;;;;;4.95;62.30;100438.78;4947028;29;8867;-77
2022/01/27 05:26:34;;;;;;;;;85.00;66.00;;;;;4.98;62.32;100432.03;4946983;29;8898;-75
2022/01/27 05:29:04;;;;;;;;;69.75;56.50;;;;;5.05;62.10;100434.00;4950639;28;8884;-76
2022/01/27 05:31:33;;;;;;;;;69.25;58.25;;;;;4.66;62.10;100436.00;4985769;28;8959;-74
2022/01/27 05:34:03;;;;;;;;;62.25;50.75;;;;;4.29;63.89;100445.81;4985922;28;8868;-76
2022/01/27 05:36:32;;;;;;;;;83.33;66.00;;;;;4.15;64.81;100448.66;4985182;28;8863;-77
2022/01/27 05:39:01;;;;;;;;;81.67;62.33;;;;;4.17;64.70;100450.47;4975525;28;9292;-75
2022/01/27 05:41:30;;;;;;;;;92.33;71.33;;;;;4.35;64.35;100446.84;4982992;28;9329;-76
2022/01/27 05:43:58;;;;;;;;;69.75;57.50;;;;;4.48;63.83;100446.53;4985347;28;9503;-78
2022/01/27 05:46:27;;;;;;;;;70.50;56.50;;;;;4.62;63.59;100447.03;5007506;28;9009;-74
2022/01/27 05:48:56;;;;;;;;;58.25;49.75;;;;;4.71;63.34;100447.41;5006836;28;8978;-76
2022/01/27 05:51:26;;;;;;;;;71.25;58.25;;;;;4.79;63.02;100452.84;5006777;28;8878;-78
2022/01/27 05:53:55;;;;;;;;;70.25;57.75;;;;;4.82;62.83;100456.44;5022687;28;8882;-79
2022/01/27 05:56:24;;;;;;;;;64.75;53.00;;;;;4.91;62.94;100457.59;5006636;28;8888;-75
2022/01/27 05:58:53;;;;;;;;;66.75;51.25;;;;;4.82;61.77;100447.78;5005459;28;8908;-78
2022/01/27 06:01:22;;;;;;;;;54.25;48.50;;;;;4.90;62.54;100454.13;5022504;28;8969;-74
2022/01/27 06:03:51;;;;;;;;;64.25;50.75;;;;;4.98;62.63;100455.28;5007265;28;8878;-78
2022/01/27 06:06:19;;;;;;;;;69.00;52.75;;;;;4.94;62.17;100457.72;5004835;28;8858;-75
2022/01/27 06:08:50;;;;;;;;;66.50;54.00;;;;;5.01;61.97;100460.56;4988388;28;8880;-75
2022/01/27 06:11:18;;;;;;;;;65.00;54.33;;;;;5.01;61.80;100459.66;5005759;28;8961;-75
2022/01/27 06:13:48;;;;;;;;;63.50;50.00;;;;;5.04;62.01;100458.06;4988113;28;9638;-74
2022/01/27 06:16:17;;;;;;;;;69.25;53.25;;;;;5.07;62.08;100465.09;4987987;28;8874;-74
2022/01/27 06:18:46;;;;;;;;;60.25;50.25;;;;;4.98;61.65;100470.78;4991949;28;9564;-75
2022/01/27 06:21:16;;;;;;;;;64.75;51.25;;;;;4.94;61.84;100471.50;5009214;28;9766;-79
2022/01/27 06:23:45;;;;;;;;;60.50;50.25;;;;;4.98;62.17;100463.03;5007865;28;8866;-75
2022/01/27 06:26:15;;;;;;;;;70.00;54.50;;;;;5.06;61.93;100463.31;5024694;28;9017;-75
2022/01/27 06:28:44;;;;;;;;;68.75;56.25;;;;;5.12;61.60;100470.41;5008117;28;8859;-78
2022/01/27 06:31:13;;;;;;;;;62.75;53.50;;;;;5.18;61.89;100470.63;5008006;28;8943;-76
2022/01/27 06:33:42;;;;;;;;;71.75;59.00;;;;;5.20;61.66;100461.25;4991265;28;8857;-74
2022/01/27 06:36:10;;;;;;;;;63.50;53.25;;;;;5.25;61.62;100462.28;5008094;28;8857;-78
2022/01/27 06:38:39;;;;;;;;;67.00;55.00;;;;;5.28;61.55;100475.31;5000950;28;9739;-74
2022/01/27 06:41:07;;;;;;;;;70.50;55.25;;;;;5.25;61.35;100473.50;5009397;28;8981;-77
2022/01/27 06:43:38;;;;;;;;;63.50;53.50;;;;;5.23;61.47;100466.50;5024653;28;8908;-74
2022/01/27 06:46:06;;;;;;;;;72.75;56.00;;;;;5.20;61.02;100469.88;5009254;28;8854;-76
2022/01/27 06:48:35;;;;;;;;;71.50;55.00;;;;;5.23;61.35;100463.91;5009264;28;8872;-79
2022/01/27 06:51:05;;;;;;;;;66.75;54.75;;;;;5.32;61.26;100461.66;4993271;28;8908;-75
2022/01/27 06:53:34;;;;;;;;;67.00;50.75;;;;;5.16;61.20;100472.28;5009789;28;8909;-77
2022/01/27 06:56:03;;;;;;;;;71.00;56.50;;;;;5.18;61.50;100460.28;5012088;28;8854;-75
2022/01/27 06:58:34;;;;;;;;;69.75;56.00;;;;;5.21;62.09;100460.41;4975607;28;8866;-78
2022/01/27 07:01:04;;;;;;;;;72.00;57.00;;;;;5.26;61.62;100448.53;4992656;28;8878;-77
2022/01/27 07:03:35;;;;;;;;;57.00;45.25;;;;;5.26;61.50;100444.22;5025408;28;8906;-74
2022/01/27 07:06:04;;;;;;;;;73.50;58.75;;;;;5.25;61.29;100452.84;5009259;28;8858;-75
2022/01/27 07:08:33;;;;;;;;;64.25;51.25;;;;;5.29;61.23;100448.63;5008352;28;8863;-77
2022/01/27 07:11:01;;;;;;;;;68.25;57.25;;;;;5.30;61.22;100446.94;4990726;28;8901;-75
2022/01/27 07:13:30;;;;;;;;;73.00;58.50;;;;;5.26;61.42;100451.13;5007085;28;8896;-74
2022/01/27 07:15:59;;;;;;;;;69.25;55.50;;;;;5.20;61.22;100459.53;4972212;28;9007;-75
2022/01/27 07:18:29;;;;;;;;;66.75;52.25;;;;;5.08;60.74;100472.00;4987965;28;8970;-76
2022/01/27 07:20:58;;;;;;;;;72.50;57.00;;;;;5.17;61.10;100467.16;4989587;28;9604;-76
2022/01/27 07:23:26;;;;;;;;;72.75;57.75;;;;;5.07;61.81;100472.84;4990943;28;8987;-76
2022/01/27 07:25:55;;;;;;;;;65.50;54.75;;;;;5.15;61.21;100480.88;4990671;28;8882;-76
2022/01/27 07:28:24;;;;;;;;;77.00;61.50;;;;;5.19;61.28;100475.00;4970637;28;8848;-74
2022/01/27 07:30:52;;;;;;;;;74.75;59.75;;;;;5.25;60.87;100470.94;4955475;28;8844;-78
2022/01/27 07:33:21;;;;;;;;;71.00;56.75;;;;;5.31;61.26;100456.44;4971660;28;8962;-80
2022/01/27 07:35:51;;;;;;;;;71.75;57.00;;;;;5.35;61.00;100459.19;4939644;28;8864;-77
2022/01/27 07:38:22;;;;;;;;;72.00;57.25;;;;;5.22;60.62;100449.25;4967847;28;8884;-78
2022/01/27 07:40:52;;;;;;;;;73.00;56.75;;;;;5.39;60.24;100460.19;4987220;28;8840;-76
2022/01/27 07:43:20;;;;;;;;;76.75;60.00;;;;;5.15;61.40;100458.47;4939353;28;8931;-78
2022/01/27 07:45:50;;;;;;;;;66.00;55.75;;;;;5.15;60.86;100455.91;4987213;28;8966;-77
2022/01/27 07:48:19;;;;;;;;;76.50;58.25;;;;;5.09;61.52;100458.25;4987400;28;8974;-77
2022/01/27 07:50:48;;;;;;;;;45.50;39.50;;;;;5.19;61.41;100460.34;4970238;28;8865;-76
2022/01/27 07:53:19;;;;;;;;;66.00;55.00;;;;;5.26;61.35;100457.16;4977284;28;8864;-74
2022/01/27 07:55:47;;;;;;;;;77.00;59.75;;;;;5.36;61.25;100453.19;4970515;28;8853;-75
2022/01/27 07:58:16;;;;;;;;;72.50;56.00;;;;;5.38;60.11;100466.19;4978905;28;9825;-77
2022/01/27 08:00:45;;;;;;;;;66.75;55.25;;;;;5.47;60.23;100456.16;5007176;28;8877;-75
2022/01/27 08:03:14;;;;;;;;;74.50;61.00;;;;;5.51;60.46;100458.00;5007474;28;8874;-75
2022/01/27 08:05:43;;;;;;;;;70.00;58.25;;;;;5.70;59.91;100456.06;5009036;28;8874;-75
2022/01/27 08:08:12;;;;;;;;;74.25;60.75;;;;;5.36;60.14;100457.50;4999098;28;8970;-75
2022/01/27 08:10:42;;;;;;;;;72.25;56.75;;;;;5.50;60.43;100460.53;5002496;28;9008;-72
2022/01/27 08:13:11;;;;;;;;;72.75;58.25;;;;;5.27;60.49;100464.09;4973120;28;8889;-75
2022/01/27 08:15:39;;;;;;;;;73.75;57.00;;;;;5.44;60.98;100451.78;5006749;28;8846;-73
2022/01/27 08:18:08;;;;;;;;;66.00;53.25;;;;;5.50;60.33;100463.13;4989743;28;8866;-74
2022/01/27 08:20:37;;;;;;;;;73.50;58.75;;;;;5.48;59.88;100468.25;5006132;28;8904;-72
2022/01/27 08:23:06;;;;;;;;;70.00;53.75;;;;;5.56;59.97;100456.47;5022606;28;8882;-72
2022/01/27 08:25:35;;;;;;;;;64.00;53.50;;;;;5.67;60.15;100454.22;5006184;28;8853;-73
2022/01/27 08:28:15;;;;;;;;;68.25;55.50;;;;;5.80;59.65;100456.44;5006523;28;8873;-73
2022/01/27 08:30:48;;;;;;;;;69.75;54.50;;;;;5.95;59.04;100456.06;5007818;28;9585;-73
2022/01/27 08:33:20;;;;;;;;;68.00;56.00;;;;;6.04;59.03;100460.69;5045407;28;8977;-72
2022/01/27 08:35:49;;;;;;;;;66.00;54.67;;;;;6.13;58.89;100460.97;5028213;28;8875;-76
2022/01/27 08:38:18;;;;;;;;;68.00;53.25;;;;;6.15;58.14;100468.81;5023650;28;9588;-75
2022/01/27 08:40:47;;;;;;;;;67.00;55.00;;;;;6.21;58.28;100474.16;5030002;28;8872;-75
2022/01/27 08:43:17;;;;;;;;;71.50;57.50;;;;;6.21;57.97;100475.03;5045407;28;8870;-76
2022/01/27 08:45:46;;;;;;;;;67.00;56.00;;;;;6.29;57.92;100479.59;5005508;28;8882;-77
2022/01/27 08:48:18;;;;;;;;;74.00;59.50;;;;;6.36;57.22;100491.91;5004355;28;8874;-75
2022/01/27 08:50:53;;;;;;;;;69.75;56.50;;;;;6.43;57.79;100494.75;5004889;28;8936;-75
2022/01/27 08:53:42;;;;;;;;;64.25;51.75;;;;;6.54;57.70;100468.28;5001331;28;8861;-71
2022/01/27 08:56:13;;;;;;;;;78.75;59.25;;;;;6.59;57.29;100461.53;4938026;28;8844;-74
2022/01/27 08:58:43;;;;;;;;;74.25;59.50;;;;;6.68;57.32;100456.63;4932822;28;9014;-75
2022/01/27 09:01:12;;;;;;;;;69.50;54.00;;;;;6.74;56.66;100456.81;4960930;28;8879;-72
2022/01/27 09:03:41;;;;;;;;;71.75;57.75;;;;;6.70;56.88;100459.28;4963027;28;8867;-72
2022/01/27 09:06:10;;;;;;;;;68.00;57.00;;;;;6.78;55.82;100461.25;4946615;28;8941;-74
2022/01/27 09:08:42;;;;;;;;;75.75;59.50;;;;;6.78;56.50;100457.78;4945942;28;8894;-72
2022/01/27 09:11:11;;;;;;;;;75.25;59.75;;;;;6.57;55.87;100463.19;4946839;28;8918;-74
2022/01/27 09:13:41;;;;;;;;;69.75;57.50;;;;;6.60;56.24;100458.13;4914189;28;8871;-73
2022/01/27 09:16:11;;;;;;;;;80.75;61.00;;;;;6.72;56.57;100462.78;4952743;28;8858;-71
2022/01/27 09:18:40;;;;;;;;;70.25;57.25;;;;;6.81;55.88;100473.44;4966329;28;8870;-71
2022/01/27 09:21:17;;;;;;;;;77.50;61.50;;;;;6.74;54.61;100481.84;4984907;28;8850;-74
2022/01/27 09:23:47;;;;;;;;;76.00;59.75;;;;;6.31;56.39;100475.34;4966805;28;8903;-74
2022/01/27 09:26:39;;;;;;;;;68.50;56.50;;;;;6.52;56.51;100467.34;4985850;28;8862;-73
2022/01/27 09:29:08;;;;;;;;;76.00;61.00;;;;;6.68;57.01;100466.13;5005760;28;8968;-72
2022/01/27 09:31:38;;;;;;;;;74.00;59.25;;;;;6.79;56.36;100456.94;5021420;28;8850;-72
2022/01/27 09:34:13;;;;;;;;;70.50;55.75;;;;;6.70;55.60;100467.03;5017950;28;8857;-71
2022/01/27 09:36:42;;;;;;;;;68.25;54.25;;;;;6.79;55.78;100468.19;5020294;28;8977;-73
2022/01/27 09:39:11;;;;;;;;;69.50;54.50;;;;;6.74;53.99;100474.94;5022067;28;8878;-74
2022/01/27 09:41:42;;;;;;;;;56.00;47.25;;;;;6.68;55.09;100471.31;5021935;28;8851;-75
2022/01/27 09:44:13;;;;;;;;;65.25;54.25;;;;;6.74;55.22;100469.75;5021442;28;8870;-75
2022/01/27 09:46:46;;;;;;;;;68.75;56.00;;;;;6.66;54.82;100471.25;5007975;28;8854;-75
2022/01/27 09:49:17;;;;;;;;;54.50;44.50;;;;;6.62;54.97;100466.81;5007085;28;8892;-72
2022/01/27 09:51:47;;;;;;;;;58.50;49.00;;;;;6.33;54.86;100474.56;5022665;28;8858;-75
2022/01/27 09:54:17;;;;;;;;;61.00;48.50;;;;;5.68;55.90;100473.25;4992189;28;8893;-74
2022/01/27 09:56:46;;;;;;;;;56.25;44.75;;;;;5.18;58.16;100476.69;5009839;28;8874;-73
2022/01/27 09:59:17;;;;;;;;;52.75;43.75;;;;;5.65;58.08;100468.81;5010576;28;8886;-72
2022/01/27 10:01:56;;;;;;;;;40.00;36.00;;;;;5.73;55.51;100462.22;5009372;28;8882;-72
2022/01/27 10:04:41;;;;;;;;;43.50;37.00;;;;;5.93;56.78;100460.28;5024714;28;8959;-72
2022/01/27 10:07:11;;;;;;;;;47.25;43.00;;;;;6.02;55.51;100462.34;5009332;28;8846;-73
2022/01/27 10:09:40;;;;;;;;;58.00;44.00;;;;;5.83;56.14;100455.66;5008770;28;8854;-74
2022/01/27 10:12:09;;;;;;;;;49.75;42.75;;;;;5.04;57.65;100458.06;5003551;28;8973;-74
2022/01/27 10:14:39;;;;;;;;;43.50;40.25;;;;;4.47;58.92;100468.00;4992694;28;9009;-72
2022/01/27 10:17:13;;;;;;;;;51.00;43.00;;;;;4.19;59.80;100451.41;5009559;28;9059;-77
2022/01/27 10:19:41;;;;;;;;;60.25;46.75;;;;;4.54;61.17;100441.59;4992286;28;8870;-72
2022/01/27 10:22:14;;;;;;;;;50.25;43.75;;;;;5.04;60.29;100445.16;5008427;28;8858;-74
2022/01/27 10:24:43;;;;;;;;;46.75;41.75;;;;;4.80;58.81;100447.75;4977365;28;8893;-73
2022/01/27 10:27:21;;;;;;;;;42.75;40.75;;;;;4.06;60.79;100446.56;5007702;28;8842;-73
2022/01/27 10:30:35;;;;;;;;;50.00;43.25;;;;;4.04;61.75;100436.19;5009284;28;8915;-70
2022/01/27 10:32:55;;;;;;;;;53.75;40.25;;;;;4.60;61.18;100426.31;5009628;28;8878;-76
2022/01/27 10:35:25;;;;;;;;;49.75;41.25;;;;;4.94;60.02;100419.81;5008055;28;8874;-74
2022/01/27 10:38:03;;;;;;;;;40.75;39.25;;;;;5.13;59.80;100417.91;5008006;28;8858;-72
2022/01/27 10:40:34;;;;;;;;;47.50;42.75;;;;;5.50;58.59;100408.81;4995353;28;9074;-73
2022/01/27 10:43:13;;;;;;;;;42.00;36.25;;;;;5.05;57.59;100415.03;4989637;28;8978;-72
2022/01/27 10:46:05;;;;;;;;;46.00;42.25;;;;;5.48;58.25;100401.00;4990255;28;8878;-72
2022/01/27 10:48:41;;;;;;;;;44.00;40.00;;;;;5.71;57.53;100401.78;4990330;28;8866;-73
2022/01/27 10:51:17;;;;;;;;;49.25;42.00;;;;;6.03;57.47;100399.34;5006558;28;9013;-74
2022/01/27 10:53:53;;;;;;;;;52.75;44.25;;;;;6.32;56.33;100384.72;5023553;28;8872;-73
2022/01/27 10:56:24;;;;;;;;;43.00;37.50;;;;;6.56;55.87;100388.88;4991147;28;8894;-74
2022/01/27 10:58:54;;;;;;;;;48.00;41.50;;;;;6.75;54.79;100382.53;4991242;28;8865;-74
2022/01/27 11:01:26;;;;;;;;;51.75;43.25;;;;;6.89;54.94;100385.50;5007734;28;8854;-71
2022/01/27 11:03:59;;;;;;;;;44.75;40.00;;;;;7.14;54.13;100387.03;5007487;28;8973;-71
2022/01/27 11:06:31;;;;;;;;;50.00;43.00;;;;;7.26;53.37;100381.28;5004241;28;8873;-74
2022/01/27 11:09:06;;;;;;;;;62.50;46.25;;;;;7.30;52.22;100375.38;4991191;28;8877;-75
2022/01/27 11:11:35;;;;;;;;;56.75;43.75;;;;;7.24;53.19;100370.91;5008308;28;8866;-75
2022/01/27 11:14:04;;;;;;;;;52.00;43.00;;;;;7.43;53.35;100367.06;5007924;28;9011;-71
2022/01/27 11:16:38;;;;;;;;;50.00;45.00;;;;;7.52;52.59;100372.47;5019644;28;8850;-71
2022/01/27 11:22:01;;;;;;;;;49.25;42.75;;;;;7.73;52.13;100361.75;4949327;28;8883;-73
2022/01/27 11:24:54;;;;;;;;;49.75;43.25;;;;;7.90;52.57;100358.66;4947665;28;8862;-73
2022/01/27 11:27:25;;;;;;;;;56.25;44.50;;;;;8.05;51.34;100359.00;4947281;28;8886;-75
2022/01/27 11:30:02;;;;;;;;;50.50;43.25;;;;;8.15;51.02;100345.41;4951828;28;8866;-70
2022/01/27 11:32:34;;;;;;;;;44.00;41.00;;;;;8.27;51.13;100355.19;4960631;28;8899;-72
2022/01/27 11:35:17;;;;;;;;;35.75;29.00;;;;;8.44;50.30;100354.72;4948061;28;8941;-70
2022/01/27 11:37:51;;;;;;;;;54.00;40.00;;;;;8.31;49.67;100341.41;4953516;28;8870;-72
2022/01/27 11:40:23;;;;;;;;;54.25;44.75;;;;;8.32;50.44;100350.97;4963348;28;8870;-72
2022/01/27 11:43:07;;;;;;;;;45.50;39.75;;;;;8.45;50.56;100348.66;4933314;28;9059;-71
2022/01/27 11:45:38;;;;;;;;;55.75;46.50;;;;;8.43;49.72;100343.44;4963498;28;8905;-74
2022/01/27 11:48:13;;;;;;;;;60.50;46.00;;;;;8.43;49.61;100335.66;4961588;28;8863;-72
2022/01/27 11:50:53;;;;;;;;;61.50;48.00;;;;;8.45;49.05;100333.97;4947401;28;8876;-71
2022/01/27 11:53:33;;;;;;;;;51.25;43.75;;;;;8.53;48.94;100323.72;4930430;28;8894;-73
2022/01/27 11:56:05;;;;;;;;;50.50;45.00;;;;;8.41;48.31;100316.47;4957499;28;8965;-73
2022/01/27 11:58:44;;;;;;;;;57.25;49.00;;;;;8.31;48.92;100312.81;4944969;28;8920;-73
2022/01/27 12:01:17;;;;;;;;;56.75;43.00;;;;;7.75;49.70;100304.66;5013664;28;8904;-72
2022/01/27 12:04:08;;;;;;;;;63.00;52.25;;;;;7.58;49.86;100304.25;5008939;28;8884;-70
2022/01/27 12:06:40;;;;;;;;;65.50;51.50;;;;;7.25;51.24;100294.81;5008989;28;8879;-73
2022/01/27 12:09:28;;;;;;;;;54.50;43.75;;;;;7.31;50.93;100296.69;5025598;28;8888;-74
2022/01/27 12:11:59;;;;;;;;;55.75;46.75;;;;;6.95;52.16;100285.41;5005980;28;8984;-74
2022/01/27 12:15:03;;;;;;;;;54.75;47.25;;;;;6.69;52.26;100282.16;4970078;28;9010;-73